Aérodrome :
LOGIN :

S'inscrire | Disclaimer

   EN    FR    IT 

 










Légende :    VFR   VFR Marginal   IFR   IFR Intensif   IFR Très Intensif
Visi : 
Plafond : 
>= 8 km
>= 3000ft
5 à 8 km
1000 à 3000 ft
1500m à 5 km
500 à 1000 ft
800 à 1500m
200 à 500 ft
< 800m
< 200 ft
Symboles :   Orages  Brouillard  Fortes neiges  Fortes précipitations  Vent > 20 kt
SIGMETs :   Divers  Orages  Givrage  Turbulence  Onde Orograph.  Cendres Volcan.







- Altitude de l'aérodrome : 276 ft
- Code IATA : RBA


GMME - Rabat

DERNIER METAR :
  • 181900Z VRB03KT 6000 FEW010 BKN016 21/16 Q1017 NOSIG

METARs EXPIRÉS :
  • 181830Z 28004KT 230V340 6000 SCT010 BKN016 21/16 Q1017 NOSIG
  • 181800Z 30007KT 260V330 6000 SCT010 BKN016 21/16 Q1017 NOSIG
  • 181730Z 29007KT 250V330 6000 SCT010 BKN016 21/16 Q1017 NOSIG
  • 181700Z 28009KT 250V320 6000 SCT010 BKN016 21/16 Q1017 NOSIG
  • 181630Z 28008KT 250V320 6000 SCT010 BKN016 22/17 Q1017 NOSIG

TAF TAF GMME
Valide du 18 à 18h jusqu'au 20 à 00h UTC


181700Z 1818/1924 28010KT 6000 BKN026
TEMPO 1818/1906 VRB02KT 3000 BR SCT008 BKN015
TEMPO 1822/1904 0800 FG
PROB30
TEMPO 1906/1912 36010KT RA
Pas de NOTAMs connus pour ce terrain.
1 SIGMET publié pour la FIR Casablanca (GMMM) :
 
Orages noyés dans la masse
GMMM SIGMET A1 VALID 181830/182030 GMMC
GMMM CASABLANCA FIR EMBD TS OBS WI N3356 W00437 - N3316 W00452 - N33 19 W00508 - N3401 W00455 TOP FL300 MOV NE INTSF=



MET'MAP, la Météo Aéronautique d'un coup d'oeil ! - Copyright ORBIFLY Décembre 2007 - Disclaimer

ORBIFLY MET'MAP TEAM :

Programmation & Développement : Alexandra Zaïnal
Conception & Développement : Baudouin d'Aumeries
Co-Programmation & Développement : Marc-Olivier Méhu
Soutien technique & logistique : Manuel Goepfert

Contact : metmap@orbifly.com




SOURCES & CREDITS :

   NOAA